Time;durP1;ratioP1;P1;durP2;ratioP2;P2;SDS_P1;SDS_P2;PMS_P1;PMS_P2;Temp;Humidity;BMP_temperature;BMP_pressure;BME280_temperature;BME280_humidity;BME280_pressure;Samples;Min_cycle;Max_cycle;Signal;HPM_P1;HPM_P2
2020/12/19 00:02:05;;;;;;;;;;;;;;;20.48;38.92;101657.69;5018947;28;2498;-65
2020/12/19 00:04:31;;;;;;;;;;;;;;;20.48;39.03;101658.50;5028666;28;2008;-66
2020/12/19 00:06:56;;;;;;;;;;;;;;;20.48;38.85;101657.69;5036117;28;1254;-65
2020/12/19 00:09:21;;;;;;;;;;;;;;;20.47;38.93;101651.28;5036249;28;920;-65
2020/12/19 00:11:46;;;;;;;;;;;;;;;20.48;38.87;101643.66;5035847;28;1028;-66
2020/12/19 00:14:12;;;;;;;;;;;;;;;20.48;38.92;101646.47;5034113;28;2039;-65
2020/12/19 00:16:37;;;;;;;;;;;;;;;20.47;38.87;101642.88;5016256;28;1731;-65
2020/12/19 00:19:05;;;;;;;;;;;;;;;20.47;38.93;101642.88;5016784;28;1094;-65
2020/12/19 00:21:35;;;;;;;;;;;;;;;20.46;38.95;101644.06;5016131;28;902;-65
2020/12/19 00:24:05;;;;;;;;;;;;;;;20.46;38.90;101635.66;5024096;28;2011;-65
2020/12/19 00:26:42;;;;;;;;;;;;;;;20.47;38.83;101633.66;5024688;28;2065;-65
2020/12/19 00:29:10;;;;;;;;;;;;;;;20.46;38.88;101634.84;5018686;28;2429;-65
2020/12/19 00:31:36;;;;;;;;;;;;;;;20.47;38.95;101639.28;5016593;28;932;-65
2020/12/19 00:34:02;;;;;;;;;;;;;;;20.46;38.91;101632.84;5016069;28;1957;-65
2020/12/19 00:36:28;;;;;;;;;;;;;;;20.45;38.85;101631.25;5015753;28;1865;-65
2020/12/19 00:38:54;;;;;;;;;;;;;;;20.45;38.77;101622.84;5015751;28;1038;-64
2020/12/19 00:41:21;;;;;;;;;;;;;;;20.45;38.79;101620.03;5016395;28;960;-65
2020/12/19 00:43:47;;;;;;;;;;;;;;;20.45;38.87;101617.22;5016791;28;1964;-65
2020/12/19 00:46:14;;;;;;;;;;;;;;;20.44;38.88;101620.41;5015270;28;1315;-65
2020/12/19 00:48:40;;;;;;;;;;;;;;;20.45;38.93;101622.84;5015867;28;836;-64
2020/12/19 00:51:11;;;;;;;;;;;;;;;20.44;38.96;101623.22;5015420;28;862;-65
2020/12/19 00:53:36;;;;;;;;;;;;;;;20.44;38.88;101618.41;5015404;28;923;-64
2020/12/19 00:56:02;;;;;;;;;;;;;;;20.44;38.87;101620.41;5015077;28;1891;-65
2020/12/19 00:58:27;;;;;;;;;;;;;;;20.43;38.79;101613.19;5027723;28;2384;-65
2020/12/19 01:00:52;;;;;;;;;;;;;;;20.43;38.94;101616.00;5035535;28;811;-65
2020/12/19 01:03:17;;;;;;;;;;;;;;;20.42;38.92;101611.59;5034967;28;1004;-64
2020/12/19 01:05:43;;;;;;;;;;;;;;;20.43;38.88;101611.19;5032425;28;2094;-66
2020/12/19 01:08:08;;;;;;;;;;;;;;;20.42;38.90;101611.59;5015870;28;992;-65
2020/12/19 01:10:33;;;;;;;;;;;;;;;20.42;38.87;101604.00;5014942;28;956;-65
2020/12/19 01:12:58;;;;;;;;;;;;;;;20.42;38.88;101604.00;5015768;28;2089;-65
2020/12/19 01:15:24;;;;;;;;;;;;;;;20.42;38.87;101601.19;5034520;28;1898;-65
2020/12/19 01:17:49;;;;;;;;;;;;;;;20.41;38.81;101598.75;5034996;28;1350;-65
2020/12/19 01:20:14;;;;;;;;;;;;;;;20.42;38.85;101597.59;5035128;28;977;-65
2020/12/19 01:22:40;;;;;;;;;;;;;;;20.41;38.89;101598.75;5035536;28;853;-65
2020/12/19 01:25:05;;;;;;;;;;;;;;;20.41;38.81;101593.16;5034911;28;853;-65
2020/12/19 01:27:30;;;;;;;;;;;;;;;20.40;38.90;101600.78;5034615;28;1346;-65
2020/12/19 01:29:55;;;;;;;;;;;;;;;20.40;38.95;101600.78;5017104;28;2410;-65
2020/12/19 01:32:21;;;;;;;;;;;;;;;20.40;38.95;101602.75;5015719;28;849;-65
2020/12/19 01:34:46;;;;;;;;;;;;;;;20.39;38.88;101596.34;5014865;28;1899;-65
2020/12/19 01:37:11;;;;;;;;;;;;;;;20.39;38.81;101595.56;5015536;28;1345;-65
2020/12/19 01:39:36;;;;;;;;;;;;;;;20.38;38.90;101586.34;5015007;28;896;-65
2020/12/19 01:42:02;;;;;;;;;;;;;;;20.39;38.83;101587.94;5015315;28;1986;-64
2020/12/19 01:44:27;;;;;;;;;;;;;;;20.39;38.95;101587.16;5032155;28;1831;-65
2020/12/19 01:46:55;;;;;;;;;;;;;;;20.38;38.92;101577.13;5034359;28;1250;-65
2020/12/19 01:49:26;;;;;;;;;;;;;;;20.38;38.91;101577.13;5034920;28;952;-64
2020/12/19 01:51:54;;;;;;;;;;;;;;;20.38;38.95;101577.94;5034738;28;896;-65
2020/12/19 01:54:21;;;;;;;;;;;;;;;20.39;38.87;101567.50;5035255;28;1951;-64
2020/12/19 01:56:51;;;;;;;;;;;;;;;20.37;38.96;101575.53;5033968;28;1791;-66
2020/12/19 01:59:17;;;;;;;;;;;;;;;20.36;38.95;101565.50;5035152;28;1354;-65
2020/12/19 02:01:48;;;;;;;;;;;;;;;20.37;38.88;101567.91;5034783;28;865;-64
2020/12/19 02:04:14;;;;;;;;;;;;;;;20.35;38.96;101561.88;5034874;28;904;-65
2020/12/19 02:06:41;;;;;;;;;;;;;;;20.34;38.87;101554.66;5016379;28;1302;-64
2020/12/19 02:09:07;;;;;;;;;;;;;;;20.35;38.89;101559.09;5017362;28;1564;-65
2020/12/19 02:11:32;;;;;;;;;;;;;;;20.35;38.98;101561.06;5019959;28;2087;-65
2020/12/19 02:13:57;;;;;;;;;;;;;;;20.35;38.84;101547.03;5017010;28;1899;-66
2020/12/19 02:16:23;;;;;;;;;;;;;;;20.35;38.90;101558.25;5014980;28;1353;-65
2020/12/19 02:18:48;;;;;;;;;;;;;;;20.34;38.82;101542.66;5015075;28;988;-65
2020/12/19 02:21:13;;;;;;;;;;;;;;;20.34;38.94;101551.06;5015125;28;1043;-65
2020/12/19 02:23:39;;;;;;;;;;;;;;;20.34;38.90;101546.25;5025304;28;2047;-65
2020/12/19 02:26:04;;;;;;;;;;;;;;;20.33;38.86;101543.84;5037816;28;1274;-65
2020/12/19 02:28:29;;;;;;;;;;;;;;;20.34;38.90;101534.25;5037943;28;1055;-65
2020/12/19 02:30:55;;;;;;;;;;;;;;;20.33;38.84;101541.03;5038014;28;794;-65
2020/12/19 02:33:20;;;;;;;;;;;;;;;20.33;38.94;101535.44;5037826;28;862;-65
2020/12/19 02:35:46;;;;;;;;;;;;;;;20.33;38.87;101538.22;5037276;28;1965;-65
2020/12/19 02:38:11;;;;;;;;;;;;;;;20.33;38.85;101536.25;5026866;28;2021;-65
2020/12/19 02:40:37;;;;;;;;;;;;;;;20.22;38.84;101513.75;5038296;28;937;-66
2020/12/19 02:43:02;;;;;;;;;;;;;;;20.33;38.88;101538.22;5038094;28;836;-66
2020/12/19 02:45:27;;;;;;;;;;;;;;;20.32;38.85;101523.41;5037541;28;861;-65
2020/12/19 02:47:52;;;;;;;;;;;;;;;20.32;38.86;101526.22;5037815;28;1250;-65
2020/12/19 02:50:18;;;;;;;;;;;;;;;20.32;38.98;101525.44;5037883;28;980;-65
2020/12/19 02:52:43;;;;;;;;;;;;;;;20.31;38.94;101519.00;5021220;28;2402;-65
2020/12/19 02:55:08;;;;;;;;;;;;;;;20.32;38.88;101520.63;5017813;28;1898;-65
2020/12/19 02:57:34;;;;;;;;;;;;;;;20.31;38.93;101513.38;5017634;28;1266;-65
2020/12/19 02:59:59;;;;;;;;;;;;;;;20.31;38.95;101509.78;5000202;28;1310;-65
2020/12/19 03:02:24;;;;;;;;;;;;;;;20.30;38.91;101514.59;5017799;28;871;-65
2020/12/19 03:04:50;;;;;;;;;;;;;;;20.30;38.79;101514.59;5018056;28;2044;-66
2020/12/19 03:07:15;;;;;;;;;;;;;;;20.30;38.86;101511.78;5036975;28;1368;-65
2020/12/19 03:09:40;;;;;;;;;;;;;;;20.29;38.80;101516.56;5019417;28;1937;-65
2020/12/19 03:12:06;;;;;;;;;;;;;;;20.30;38.99;101509.00;5017332;28;828;-66
2020/12/19 03:14:31;;;;;;;;;;;;;;;20.29;38.93;101504.56;5017386;28;1975;-66
2020/12/19 03:16:56;;;;;;;;;;;;;;;20.29;38.97;101501.75;5032668;28;1702;-66
2020/12/19 03:19:21;;;;;;;;;;;;;;;20.29;38.81;101498.97;5022411;28;1973;-65
2020/12/19 03:21:47;;;;;;;;;;;;;;;20.29;38.93;101504.56;5037531;28;900;-65
2020/12/19 03:24:12;;;;;;;;;;;;;;;20.28;39.01;101503.78;5037493;28;892;-65
2020/12/19 03:26:37;;;;;;;;;;;;;;;20.28;38.88;101498.16;5036662;28;1330;-65
2020/12/19 03:29:03;;;;;;;;;;;;;;;20.27;38.94;101496.56;5037042;28;1054;-65
2020/12/19 03:31:28;;;;;;;;;;;;;;;20.28;38.81;101488.97;5033614;28;2102;-65
2020/12/19 03:33:54;;;;;;;;;;;;;;;20.27;38.86;101490.16;5016603;28;1063;-65
2020/12/19 03:36:20;;;;;;;;;;;;;;;20.27;38.97;101490.94;5016527;28;1952;-65
2020/12/19 03:38:45;;;;;;;;;;;;;;;20.27;38.95;101487.34;5017401;28;889;-66
2020/12/19 03:41:11;;;;;;;;;;;;;;;20.26;38.94;101486.56;5016713;28;889;-65
2020/12/19 03:43:36;;;;;;;;;;;;;;;20.27;38.97;101484.53;5017033;28;790;-65
2020/12/19 03:46:02;;;;;;;;;;;;;;;20.26;38.90;101478.13;5029581;28;2118;-65
2020/12/19 03:48:27;;;;;;;;;;;;;;;20.27;38.96;101484.53;5036569;28;865;-65
2020/12/19 03:50:53;;;;;;;;;;;;;;;20.27;38.87;101481.72;5036823;28;809;-65
2020/12/19 03:53:18;;;;;;;;;;;;;;;20.25;38.98;101473.72;5036881;28;1113;-65
2020/12/19 03:55:44;;;;;;;;;;;;;;;20.25;38.84;101482.13;5036337;28;1890;-65
2020/12/19 03:58:09;;;;;;;;;;;;;;;20.25;38.98;101473.72;5036146;28;988;-66
2020/12/19 04:00:34;;;;;;;;;;;;;;;20.26;38.98;101477.31;5035000;28;2012;-65
2020/12/19 04:03:00;;;;;;;;;;;;;;;20.25;38.99;101481.34;5035991;28;971;-65
2020/12/19 04:05:25;;;;;;;;;;;;;;;20.25;38.85;101472.91;5036479;28;860;-65
2020/12/19 04:07:50;;;;;;;;;;;;;;;20.25;38.89;101486.94;5036144;28;1381;-65
2020/12/19 04:10:16;;;;;;;;;;;;;;;20.25;38.84;101481.34;5036063;28;976;-64
2020/12/19 04:12:41;;;;;;;;;;;;;;;20.24;38.83;101471.31;5033097;28;1959;-64
2020/12/19 04:15:08;;;;;;;;;;;;;;;20.24;38.87;101469.28;5015880;28;1907;-65
2020/12/19 04:17:34;;;;;;;;;;;;;;;20.24;38.84;101457.28;5015788;28;1390;-65
2020/12/19 04:19:59;;;;;;;;;;;;;;;20.24;38.92;101460.09;5016143;28;924;-65
2020/12/19 04:22:24;;;;;;;;;;;;;;;20.24;38.83;101462.88;5016495;28;797;-65
2020/12/19 04:24:50;;;;;;;;;;;;;;;20.23;38.89;101462.09;5015966;28;988;-65
2020/12/19 04:27:15;;;;;;;;;;;;;;;20.24;38.95;101462.88;5016272;28;1862;-65
2020/12/19 04:29:40;;;;;;;;;;;;;;;20.23;38.88;101467.72;5016425;28;865;-65
2020/12/19 04:32:06;;;;;;;;;;;;;;;20.23;38.83;101464.91;5016103;28;1044;-65
2020/12/19 04:34:31;;;;;;;;;;;;;;;20.23;38.92;101456.50;5016022;28;1976;-65
2020/12/19 04:36:57;;;;;;;;;;;;;;;20.22;38.93;101457.69;5016244;28;1266;-65
2020/12/19 04:39:22;;;;;;;;;;;;;;;20.22;38.93;101449.25;5016153;28;889;-65
2020/12/19 04:41:47;;;;;;;;;;;;;;;20.22;38.93;101456.88;5029697;28;2035;-65
2020/12/19 04:44:13;;;;;;;;;;;;;;;20.21;38.82;101453.28;5034863;28;1016;-65
2020/12/19 04:46:42;;;;;;;;;;;;;;;20.21;38.89;101444.88;5034447;28;1254;-65
2020/12/19 04:49:08;;;;;;;;;;;;;;;20.22;39.01;101454.09;5029589;28;2057;-65
2020/12/19 04:51:35;;;;;;;;;;;;;;;20.22;38.89;101456.88;5016075;28;896;-65
2020/12/19 04:54:01;;;;;;;;;;;;;;;20.22;38.92;101459.69;5016041;28;2054;-66
2020/12/19 04:56:28;;;;;;;;;;;;;;;20.21;38.84;101469.28;5034993;28;2133;-65
2020/12/19 04:58:55;;;;;;;;;;;;;;;20.20;38.98;101457.28;5034846;28;1003;-65
2020/12/19 05:01:20;;;;;;;;;;;;;;;20.20;38.99;101451.66;5035398;28;908;-65
2020/12/19 05:03:50;;;;;;;;;;;;;;;20.20;39.02;101439.66;5035708;28;869;-65
2020/12/19 05:06:23;;;;;;;;;;;;;;;20.19;38.92;101438.88;5034699;28;1262;-66
2020/12/19 05:08:50;;;;;;;;;;;;;;;20.20;38.99;101451.66;5020641;28;2201;-65
2020/12/19 05:11:16;;;;;;;;;;;;;;;20.20;38.92;101436.84;5015435;28;977;-65
2020/12/19 05:13:42;;;;;;;;;;;;;;;20.19;38.86;101446.47;5015682;28;888;-65
2020/12/19 05:16:09;;;;;;;;;;;;;;;20.19;38.91;101426.84;5014762;28;1914;-65
2020/12/19 05:18:36;;;;;;;;;;;;;;;20.19;39.01;101436.06;5016041;28;868;-65
2020/12/19 05:21:05;;;;;;;;;;;;;;;20.19;38.86;101438.88;5015050;28;2071;-66
2020/12/19 05:23:33;;;;;;;;;;;;;;;20.19;38.92;101443.66;4995459;28;850;-65
2020/12/19 05:25:58;;;;;;;;;;;;;;;20.19;38.86;101438.88;4995132;28;1346;-65
2020/12/19 05:28:24;;;;;;;;;;;;;;;20.19;39.02;101429.63;4995798;28;988;-65
2020/12/19 05:30:50;;;;;;;;;;;;;;;20.18;38.94;101428.03;4995945;28;858;-65
2020/12/19 05:33:15;;;;;;;;;;;;;;;20.17;38.80;101435.63;4995937;28;880;-65
2020/12/19 05:35:41;;;;;;;;;;;;;;;20.18;38.91;101428.84;5021456;28;1951;-65
2020/12/19 05:38:06;;;;;;;;;;;;;;;20.18;38.81;101422.44;5033967;28;1962;-65
2020/12/19 05:40:34;;;;;;;;;;;;;;;20.17;38.97;101418.81;5034843;28;976;-65
2020/12/19 05:43:00;;;;;;;;;;;;;;;20.17;39.04;101418.03;5034512;28;801;-65
2020/12/19 05:45:27;;;;;;;;;;;;;;;20.18;38.91;101422.44;5034554;28;913;-64
2020/12/19 05:47:53;;;;;;;;;;;;;;;20.17;38.92;101421.63;5034546;28;1338;-65
2020/12/19 05:50:20;;;;;;;;;;;;;;;20.16;38.94;101417.22;5008338;28;2005;-65
2020/12/19 05:52:45;;;;;;;;;;;;;;;20.17;38.94;101418.81;5034792;28;1047;-65
2020/12/19 05:55:15;;;;;;;;;;;;;;;20.17;38.97;101412.41;5034245;28;1957;-65
2020/12/19 05:57:41;;;;;;;;;;;;;;;20.16;38.80;101413.59;5037595;28;1263;-65
2020/12/19 06:00:15;;;;;;;;;;;;;;;20.16;38.86;101414.41;5038300;28;830;-65
2020/12/19 06:02:41;;;;;;;;;;;;;;;20.17;39.01;101409.59;5033233;28;2050;-65
2020/12/19 06:05:13;;;;;;;;;;;;;;;20.15;39.03;101401.59;5018474;28;937;-65
2020/12/19 06:07:43;;;;;;;;;;;;;;;20.16;39.09;101405.19;5018707;28;1374;-65
2020/12/19 06:10:14;;;;;;;;;;;;;;;20.15;38.90;101407.19;5018941;28;997;-65
2020/12/19 06:12:50;;;;;;;;;;;;;;;20.15;38.98;101404.41;5018993;28;1043;-65
2020/12/19 06:15:28;;;;;;;;;;;;;;;20.15;38.94;101404.41;5018393;28;1906;-66
2020/12/19 06:18:19;;;;;;;;;;;;;;;20.15;38.89;101401.59;5020087;28;1988;-65
2020/12/19 06:20:45;;;;;;;;;;;;;;;20.15;39.03;101398.00;5018077;28;1140;-65
2020/12/19 06:23:16;;;;;;;;;;;;;;;20.14;38.96;101391.59;5018417;28;885;-65
2020/12/19 06:25:45;;;;;;;;;;;;;;;20.15;38.84;101392.38;5018131;28;1282;-65
2020/12/19 06:28:32;;;;;;;;;;;;;;;20.14;38.73;101391.59;5018435;28;806;-65
2020/12/19 06:31:11;;;;;;;;;;;;;;;20.15;38.95;101398.00;5025857;28;2068;-65
2020/12/19 06:33:38;;;;;;;;;;;;;;;20.15;38.90;101406.41;5037677;28;1990;-65
2020/12/19 06:36:24;;;;;;;;;;;;;;;20.14;38.94;101400.00;5037587;28;1949;-65
2020/12/19 06:38:50;;;;;;;;;;;;;;;20.14;39.04;101402.81;5037503;28;1156;-65
2020/12/19 06:41:46;;;;;;;;;;;;;;;20.14;39.05;101399.19;5037961;28;791;-65
2020/12/19 06:44:14;;;;;;;;;;;;;;;20.13;38.99;101395.59;5035707;28;1907;-65
2020/12/19 06:46:40;;;;;;;;;;;;;;;20.13;39.00;101403.19;5017568;28;1346;-66
2020/12/19 06:49:24;;;;;;;;;;;;;;;20.13;38.98;101401.19;5018121;28;842;-65
2020/12/19 06:52:13;;;;;;;;;;;;;;;20.13;38.91;101404.00;5018192;28;846;-65
2020/12/19 06:54:45;;;;;;;;;;;;;;;20.13;38.94;101392.00;5013773;28;2133;-66
2020/12/19 06:57:31;;;;;;;;;;;;;;;20.12;39.00;101410.78;5017609;28;1258;-65
2020/12/19 07:00:16;;;;;;;;;;;;;;;20.12;38.99;101404.38;5033811;28;2130;-65
2020/12/19 07:02:50;;;;;;;;;;;;;;;20.12;38.99;101407.97;5032632;28;2123;-65
2020/12/19 07:05:20;;;;;;;;;;;;;;;20.12;39.02;101402.38;5017303;28;912;-65
2020/12/19 07:07:45;;;;;;;;;;;;;;;20.12;38.94;101402.38;5016557;28;1362;-65
2020/12/19 07:10:11;;;;;;;;;;;;;;;20.12;38.87;101401.59;5017783;28;936;-65
2020/12/19 07:12:38;;;;;;;;;;;;;;;20.12;38.97;101398.78;5017783;28;976;-65
2020/12/19 07:15:06;;;;;;;;;;;;;;;20.11;38.98;101403.59;5017072;28;1978;-65
2020/12/19 07:17:48;;;;;;;;;;;;;;;20.10;38.92;101397.16;5017470;28;1857;-65
2020/12/19 07:20:20;;;;;;;;;;;;;;;20.11;38.99;101398.00;5017249;28;865;-65
2020/12/19 07:22:46;;;;;;;;;;;;;;;20.10;39.03;101408.38;5017331;28;794;-65
2020/12/19 07:25:11;;;;;;;;;;;;;;;20.10;39.04;101402.78;5017286;28;899;-65
2020/12/19 07:27:36;;;;;;;;;;;;;;;20.10;39.07;101405.56;5017561;28;1255;-65
2020/12/19 07:30:03;;;;;;;;;;;;;;;20.11;39.10;101409.19;5016903;28;894;-65
2020/12/19 07:32:28;;;;;;;;;;;;;;;20.10;38.99;101408.38;5017151;28;1909;-65
2020/12/19 07:34:58;;;;;;;;;;;;;;;20.09;39.06;101404.00;5016783;28;1951;-65
2020/12/19 07:37:24;;;;;;;;;;;;;;;20.10;39.03;101411.19;5016679;28;1365;-65
2020/12/19 07:39:51;;;;;;;;;;;;;;;20.10;38.93;101411.19;5016723;28;916;-65
2020/12/19 07:42:16;;;;;;;;;;;;;;;20.09;39.12;101406.78;5016695;28;904;-65
2020/12/19 07:44:44;;;;;;;;;;;;;;;20.09;38.98;101404.00;5017463;28;1729;-66
2020/12/19 07:47:12;;;;;;;;;;;;;;;20.09;38.88;101397.59;5036365;28;1348;-65
2020/12/19 07:49:46;;;;;;;;;;;;;;;20.09;38.97;101392.78;5036560;28;928;-65
2020/12/19 07:52:24;;;;;;;;;;;;;;;20.08;39.05;101395.97;5036597;28;2049;-65
2020/12/19 07:54:57;;;;;;;;;;;;;;;20.09;38.86;101404.00;5035923;28;2076;-64
2020/12/19 07:57:24;;;;;;;;;;;;;;;20.09;39.00;101406.00;5024774;28;2127;-64
2020/12/19 07:59:49;;;;;;;;;;;;;;;20.08;39.13;101399.56;5036331;28;814;-64
2020/12/19 08:02:16;;;;;;;;;;;;;;;20.08;38.97;101399.56;5036276;28;908;-64
2020/12/19 08:04:58;;;;;;;;;;;;;;;20.09;39.00;101391.97;5036196;28;833;-64
2020/12/19 08:07:29;;;;;;;;;;;;;;;20.09;39.09;101389.19;5035474;28;1864;-64
2020/12/19 08:10:03;;;;;;;;;;;;;;;20.08;39.06;101388.34;5018840;28;909;-64
2020/12/19 08:12:29;;;;;;;;;;;;;;;20.09;38.93;101391.97;5036548;28;787;-64
2020/12/19 08:14:55;;;;;;;;;;;;;;;20.08;38.90;101391.16;5035738;28;1890;-64
2020/12/19 08:17:22;;;;;;;;;;;;;;;20.08;39.12;101384.75;5036283;28;1325;-63
2020/12/19 08:19:53;;;;;;;;;;;;;;;20.06;39.07;101387.94;5036138;28;885;-64
2020/12/19 08:22:20;;;;;;;;;;;;;;;20.07;39.05;101383.13;5025006;28;2047;-66
2020/12/19 08:24:50;;;;;;;;;;;;;;;20.07;39.05;101371.94;5001243;28;2139;-64
2020/12/19 08:27:32;;;;;;;;;;;;;;;20.06;38.88;101376.75;5013959;28;1357;-64
2020/12/19 08:30:10;;;;;;;;;;;;;;;20.06;39.08;101373.94;5015775;28;1979;-64
2020/12/19 08:32:38;;;;;;;;;;;;;;;20.07;39.06;101374.72;5015716;28;2244;-63
2020/12/19 08:35:04;;;;;;;;;;;;;;;20.07;39.06;101372.75;5015532;28;1900;-62
2020/12/19 08:37:29;;;;;;;;;;;;;;;20.06;39.03;101373.94;5016161;28;2132;-63
2020/12/19 08:40:02;;;;;;;;;;;;;;;20.06;38.99;101371.13;5016024;28;968;-62
2020/12/19 08:42:35;;;;;;;;;;;;;;;20.07;39.00;101374.72;5016173;28;996;-62
2020/12/19 08:45:31;;;;;;;;;;;;;;;20.05;39.09;101369.56;5015379;28;1000;-63
2020/12/19 08:48:23;;;;;;;;;;;;;;;20.06;38.88;101378.75;5007467;28;1484;-62
2020/12/19 08:50:51;;;;;;;;;;;;;;;20.05;39.00;101377.97;5014998;28;2021;-63
2020/12/19 08:53:17;;;;;;;;;;;;;;;20.04;38.93;101376.34;5016055;28;1667;-62
2020/12/19 08:55:43;;;;;;;;;;;;;;;20.05;39.00;101382.75;5031970;28;2120;-63
2020/12/19 08:58:29;;;;;;;;;;;;;;;20.01;36.86;101384.75;5030584;28;1827;-63
2020/12/19 09:01:00;;;;;;;;;;;;;;;19.96;36.27;101379.53;5015050;28;1940;-63
2020/12/19 09:03:28;;;;;;;;;;;;;;;19.92;35.54;101379.50;5015762;28;920;-63
2020/12/19 09:05:59;;;;;;;;;;;;;;;19.91;36.00;101375.88;5015256;28;2040;-63
2020/12/19 09:08:31;;;;;;;;;;;;;;;19.93;36.52;101375.50;5030395;28;932;-63
2020/12/19 09:10:56;;;;;;;;;;;;;;;19.95;36.99;101378.72;5015643;28;955;-62
2020/12/19 09:13:22;;;;;;;;;;;;;;;19.96;37.53;101373.91;5015721;28;795;-62
2020/12/19 09:15:49;;;;;;;;;;;;;;;19.97;37.73;101369.91;5033658;28;2155;-63
2020/12/19 09:18:23;;;;;;;;;;;;;;;19.98;37.87;101377.13;5033495;28;2439;-63
2020/12/19 09:20:54;;;;;;;;;;;;;;;19.98;37.91;101377.13;5006705;28;1937;-62
2020/12/19 09:23:20;;;;;;;;;;;;;;;19.96;37.23;101371.91;5033751;28;2177;-63
2020/12/19 09:25:46;;;;;;;;;;;;;;;19.97;37.55;101370.72;5034630;28;1357;-62
2020/12/19 09:28:12;;;;;;;;;;;;;;;19.98;37.97;101377.91;5029748;28;1903;-63
2020/12/19 09:30:38;;;;;;;;;;;;;;;19.98;38.07;101375.09;5015953;28;984;-63
2020/12/19 09:33:03;;;;;;;;;;;;;;;20.00;38.12;101371.91;5022790;28;1973;-63
2020/12/19 09:35:29;;;;;;;;;;;;;;;20.00;38.22;101380.31;5020976;28;1953;-63
2020/12/19 09:37:56;;;;;;;;;;;;;;;20.01;38.11;101379.13;5021887;28;1259;-63
2020/12/19 09:40:21;;;;;;;;;;;;;;;20.02;38.30;101377.91;5021799;28;903;-63
2020/12/19 09:42:47;;;;;;;;;;;;;;;20.02;38.20;101375.94;5021960;28;838;-63
2020/12/19 09:45:12;;;;;;;;;;;;;;;20.05;38.31;101374.34;5021196;28;1051;-63
2020/12/19 09:47:41;;;;;;;;;;;;;;;20.06;38.23;101370.34;5022374;28;1906;-63
2020/12/19 09:50:08;;;;;;;;;;;;;;;20.06;38.48;101367.53;5035132;28;2589;-62
2020/12/19 09:52:33;;;;;;;;;;;;;;;20.07;38.52;101360.72;5041085;28;861;-63
2020/12/19 09:54:58;;;;;;;;;;;;;;;20.07;38.53;101364.34;5021815;28;1921;-62
2020/12/19 09:57:24;;;;;;;;;;;;;;;20.07;38.63;101361.53;5021466;28;1346;-63
2020/12/19 09:59:49;;;;;;;;;;;;;;;20.09;38.54;101352.75;5021217;28;1942;-65
2020/12/19 10:02:14;;;;;;;;;;;;;;;20.10;38.74;101360.72;5024232;28;1878;-63
2020/12/19 10:04:40;;;;;;;;;;;;;;;20.11;38.67;101355.94;5041043;28;914;-63
2020/12/19 10:07:05;;;;;;;;;;;;;;;20.11;38.28;101361.53;5040431;28;1819;-63
2020/12/19 10:09:30;;;;;;;;;;;;;;;20.13;38.32;101355.56;5041289;28;1047;-63
2020/12/19 10:11:56;;;;;;;;;;;;;;;20.15;38.26;101359.53;5040998;28;793;-63
2020/12/19 10:14:22;;;;;;;;;;;;;;;20.18;38.41;101353.16;5041526;28;1902;-64
2020/12/19 10:16:47;;;;;;;;;;;;;;;20.21;38.47;101357.97;5025762;28;1969;-64
2020/12/19 10:19:12;;;;;;;;;;;;;;;20.23;38.50;101344.34;5033790;28;2152;-63
2020/12/19 10:21:38;;;;;;;;;;;;;;;20.28;38.66;101351.56;5039886;28;2092;-64
2020/12/19 10:24:04;;;;;;;;;;;;;;;20.32;38.50;101351.56;5021518;28;811;-63
2020/12/19 10:26:29;;;;;;;;;;;;;;;20.35;38.42;101353.56;5020781;28;1290;-63
2020/12/19 10:28:54;;;;;;;;;;;;;;;20.41;38.41;101361.19;5021106;28;1905;-63
2020/12/19 10:31:26;;;;;;;;;;;;;;;20.44;38.52;101345.56;5021867;28;2064;-63
2020/12/19 10:33:51;;;;;;;;;;;;;;;20.33;38.62;101353.16;5018958;28;2765;-63
2020/12/19 10:36:17;;;;;;;;;;;;;;;20.30;38.80;101343.56;5019992;28;2009;-64
2020/12/19 10:38:42;;;;;;;;;;;;;;;20.31;38.66;101341.53;5019928;28;1924;-60
2020/12/19 10:41:11;;;;;;;;;;;;;;;20.44;38.67;101328.75;5021874;28;1963;-61
2020/12/19 10:43:36;;;;;;;;;;;;;;;20.86;37.73;101313.09;5028209;28;2111;-62
2020/12/19 10:46:02;;;;;;;;;;;;;;;21.23;37.16;101309.81;5017281;28;1259;-60
2020/12/19 10:48:27;;;;;;;;;;;;;;;21.58;36.41;101302.47;5021902;28;2182;-60
2020/12/19 10:50:52;;;;;;;;;;;;;;;21.93;35.72;101303.47;5037888;28;896;-60
2020/12/19 10:53:17;;;;;;;;;;;;;;;22.24;34.95;101298.03;5025819;28;2126;-61
2020/12/19 10:55:43;;;;;;;;;;;;;;;22.75;33.50;101297.63;5017315;28;1902;-60
2020/12/19 10:58:08;;;;;;;;;;;;;;;23.49;32.31;101300.84;5017468;28;1884;-60
2020/12/19 11:00:33;;;;;;;;;;;;;;;23.74;31.68;101294.88;5022113;28;2067;-60
2020/12/19 11:02:59;;;;;;;;;;;;;;;22.23;34.19;101295.66;5013011;28;1856;-59
2020/12/19 11:05:24;;;;;;;;;;;;;;;21.63;34.55;101292.00;5014616;28;2204;-61
2020/12/19 11:07:49;;;;;;;;;;;;;;;21.00;34.60;101285.00;5015497;28;1985;-60
2020/12/19 11:10:14;;;;;;;;;;;;;;;21.15;34.49;101279.38;5008349;28;3050;-61
2020/12/19 11:12:40;;;;;;;;;;;;;;;20.58;35.35;101278.25;5011849;28;2304;-60
2020/12/19 11:15:34;;;;;;;;;;;;;;;20.39;35.37;101282.25;5017443;28;1898;-61
2020/12/19 11:18:00;;;;;;;;;;;;;;;20.32;35.94;101276.66;5009340;28;1924;-60
2020/12/19 11:20:25;;;;;;;;;;;;;;;20.34;36.50;101260.22;5015148;28;2214;-61
2020/12/19 11:22:51;;;;;;;;;;;;;;;20.35;36.76;101261.84;5012613;28;2192;-61
2020/12/19 11:25:17;;;;;;;;;;;;;;;20.34;36.43;101259.44;5011123;28;2073;-61
2020/12/19 11:27:42;;;;;;;;;;;;;;;20.32;36.59;101257.03;5012577;28;3197;-60
2020/12/19 11:30:07;;;;;;;;;;;;;;;20.32;36.39;101250.63;5016414;28;822;-61
2020/12/19 11:32:33;;;;;;;;;;;;;;;20.30;36.40;101256.63;5015258;28;2010;-59
2020/12/19 11:34:58;;;;;;;;;;;;;;;20.30;36.47;101251.03;5015577;28;2360;-63
2020/12/19 11:37:24;;;;;;;;;;;;;;;20.29;36.40;101253.00;5016915;28;1692;-60
2020/12/19 11:39:50;;;;;;;;;;;;;;;20.28;36.35;101262.66;5014673;28;2269;-60
2020/12/19 11:42:15;;;;;;;;;;;;;;;20.28;36.35;101262.66;5012250;28;3029;-61
2020/12/19 11:44:41;;;;;;;;;;;;;;;20.28;36.25;101264.66;5013902;28;2869;-60
2020/12/19 11:47:06;;;;;;;;;;;;;;;20.27;36.33;101265.84;5016224;28;1290;-61
2020/12/19 11:49:31;;;;;;;;;;;;;;;20.27;36.37;101249.81;5015316;28;2531;-60
2020/12/19 11:51:59;;;;;;;;;;;;;;;20.26;36.34;101251.03;5017050;28;871;-60
2020/12/19 11:54:24;;;;;;;;;;;;;;;20.27;36.26;101249.03;5014568;28;2464;-60
2020/12/19 11:56:50;;;;;;;;;;;;;;;20.27;36.33;101251.81;5015593;28;1982;-60
2020/12/19 11:59:15;;;;;;;;;;;;;;;20.25;36.38;101245.81;5014667;28;2418;-60
2020/12/19 12:01:40;;;;;;;;;;;;;;;20.24;36.28;101236.59;5015219;28;2285;-60
2020/12/19 12:04:05;;;;;;;;;;;;;;;20.24;36.49;101239.41;5014317;28;2353;-61
2020/12/19 12:06:33;;;;;;;;;;;;;;;20.24;36.38;101233.00;5010761;28;3821;-60
2020/12/19 12:09:00;;;;;;;;;;;;;;;20.23;36.47;101232.19;5014777;28;2353;-60
2020/12/19 12:11:27;;;;;;;;;;;;;;;20.23;36.53;101229.41;4998593;28;891;-59
2020/12/19 12:13:52;;;;;;;;;;;;;;;20.23;36.50;101228.59;5015489;28;2203;-60
2020/12/19 12:16:18;;;;;;;;;;;;;;;20.22;36.66;101227.78;5015877;28;1907;-62
2020/12/19 12:18:43;;;;;;;;;;;;;;;20.23;36.64;101231.41;5015797;28;1997;-60
2020/12/19 12:21:09;;;;;;;;;;;;;;;20.22;36.67;101227.00;5014094;28;2439;-60
2020/12/19 12:23:34;;;;;;;;;;;;;;;20.22;36.74;101238.22;5013043;28;2194;-60
2020/12/19 12:25:59;;;;;;;;;;;;;;;20.21;36.72;101237.41;5002224;28;2075;-61
2020/12/19 12:28:25;;;;;;;;;;;;;;;20.19;36.72;101233.41;5011389;28;2499;-60
2020/12/19 12:30:50;;;;;;;;;;;;;;;20.16;36.88;101226.59;5014077;28;2298;-60
2020/12/19 12:33:15;;;;;;;;;;;;;;;20.21;36.93;101226.19;5015432;28;1608;-60
2020/12/19 12:35:40;;;;;;;;;;;;;;;20.23;37.10;101223.78;5015961;28;1965;-60
2020/12/19 12:38:06;;;;;;;;;;;;;;;20.25;36.96;101212.19;5014862;28;1332;-60
2020/12/19 12:40:31;;;;;;;;;;;;;;;20.27;37.21;101215.38;5014475;28;1296;-59
2020/12/19 12:42:57;;;;;;;;;;;;;;;20.28;37.26;101208.59;5014495;28;1498;-61
2020/12/19 12:45:22;;;;;;;;;;;;;;;20.28;37.39;101206.56;5013951;28;1396;-60
2020/12/19 12:47:48;;;;;;;;;;;;;;;20.28;37.28;101192.53;5014181;28;1627;-59
2020/12/19 12:50:13;;;;;;;;;;;;;;;20.28;37.43;101198.16;5013130;28;2303;-61
2020/12/19 12:52:38;;;;;;;;;;;;;;;20.29;37.43;101199.75;5014532;28;1365;-60